Denver, Colorado
Current Conditions -  °F | °C
As of 12:58 AM on Friday 31 Oct 2014 (Local Time) from KBKF Reporting Station
Clear Clear  
Wind Chill: 34°   Ceiling: Unl
Heat Index: 40°   Visibility: 10mi
Dew Point: 26°   Wind: 10mph
Humidity: 56%   Direction: 180°S
Pressure: 30.4"   Gusts: NA
Location:  39.74°N, 104.99°W
Report Text: KBKF 310658Z 18009KT 10SM CLR 05/M03 A3040 RMK AO2A SLP263 T00471035 401620014
Loading
Personal Weather Stations






























Interactive Weather Map
Tropical Storm Tracking
New forecast layout! Learn more

10-Day Weather Forecast

Advertisements
Track Severe Weather on mobile